• Join FlightAware (Why Join?)
  • Login
  • US Flag 
09:45PM EDT


 

Airport Tracker/Info


-or-


 

Live Flight TrackerFlight Track Log ✈ SWA1761 ✈ 02-Dec-2013 ✈ KTPA - KFLL

Flight Track Log - Related Links

Times and Time Zones

All times are in EST time to prevent confusion due to time zone crossing. See the SWA1761 flight status page for this flight to view local times or setup timezone preferences in your user account.

Time Position Orientation Groundspeed Altitude Reporting Facility
EST Latitude Longitude Course Direction KTS MPH feet Rate Location/Type
10:06PM 28.0833 -82.5667 300° West 217 250 6,600  Level Tampa TRACON
10:08PM 27.9114 -82.5775 183° South 295 339 12,700 3,120 Climbing Miami Center
10:09PM 27.8156 -82.5750 179° South 328 377 16,600 3,360 Climbing Miami Center
10:10PM 27.6053 -82.0597 163° South  Level Estimated
10:10PM 27.7164 -82.5514 168° South 361 415 19,600  Level Miami Center
10:11PM 27.6200 -82.5044 157° South 383 441 22,500 2,700 Climbing Miami Center
10:12PM 27.5097 -82.4453 155° Southeast 394 453 25,000 1,200 Climbing Miami Center
10:13PM 27.4100 -82.3772 149° Southeast 407 468 25,000  Level Miami Center
10:14PM 27.3281 -82.2869 136° Southeast 422 486 25,000  Level Miami Center
10:15PM 27.2500 -82.1992 135° Southeast 429 494 25,000  Level Miami Center
10:16PM 27.1533 -82.0967 137° Southeast 434 499 25,000  Level Miami Center
10:17PM 27.0650 -82.0017 136° Southeast 439 505 25,000  Level Miami Center
10:18PM 26.9725 -81.9022 136° Southeast 439 505 25,000  Level Miami Center
10:19PM 26.8839 -81.8075 136° Southeast 444 511 25,000  Level Miami Center
10:20PM 26.7953 -81.7108 136° Southeast 438 504 25,000 -120 Level Miami Center
10:21PM 26.7108 -81.6167 135° Southeast 432 497 24,800 -1,500 Descending Miami Center
10:22PM 26.6242 -81.5225 136° Southeast 437 503 22,100 -2,580 Descending Miami Center
10:23PM 26.5392 -81.4311 136° Southeast 431 496 19,700 -2,520 Descending Miami Center
10:24PM 26.4583 -81.3444 136° Southeast 415 478 17,200 -2,400 Descending Miami Center
10:25PM 26.3631 -81.2528 139° Southeast 378 435 14,500 -2,220 Descending Miami Center
10:26PM 26.3067 -81.1833 132° Southeast 379 436 12,800 -2,100 Descending Miami Center
10:27PM 26.2639 -81.1447 141° Southeast 363 418 11,700 -2,100 Descending Miami Center
10:27PM 26.2339 -81.1044 130° Southeast 367 422 10,700 -1,500 Descending Miami Center
10:28PM 26.1850 -81.0586 140° Southeast 348 400 10,100 -1,140 Descending Miami Center
10:28PM 26.1669 -81.0347 130° Southeast 346 398 9,600 -1,680 Descending Miami Center
10:29PM 26.1200 -80.9917 141° Southeast 317 365 8,400 -1,560 Descending Miami Center
10:29PM 26.1122 -80.9728 115° Southeast 330 380 8,100 -480 Descending Miami Center
10:30PM 26.0953 -80.9119 107° East 302 348 8,000 -120 Descending Miami Center
10:30PM 26.1003 -80.8822 79° East 293 337 8,000 -540 Level Miami Center
10:31PM 26.0914 -80.8194 99° East 302 348 7,500 -900 Descending Miami Center
10:31PM 26.0944 -80.7872 84° East 288 331 7,100 -600 Descending Miami Center
10:32PM 26.0897 -80.7244 95° East 308 354 6,900 -540 Descending Miami Center
10:32PM 26.0992 -80.6925 72° East 294 338 6,600 -840 Descending Miami Center
10:33PM 26.1006 -80.6300 89° East 303 349 6,100 -780 Descending Miami Center
10:33PM 26.1056 -80.6025 79° East 299 344 5,900 -120 Descending Miami Center
10:34PM 26.1161 -80.5125 83° East 294 338 6,000  Climbing Miami Center
10:35PM 26.1200 -80.4386 87° East 288 331 6,000  Level Miami Center
10:35PM 26.1247 -80.4250 69° East 289 333 6,000  Level Miami Center
10:36PM 26.1264 -80.3508 89° East 290 334 6,000 -240 Level Miami Center
10:37PM 26.1369 -80.2564 83° East 280 322 5,600 -840 Descending Miami Center
10:38PM 26.1472 -80.1711 82° East 273 314 4,200 -900 Descending Miami Center
10:39PM 26.1489 -80.1017 88° East 228 262 3,900 -780 Descending Miami Center
10:40PM 26.1272 -80.0364 110° East 219 252 2,800 -1,020 Descending Miami Center
10:41PM 26.0789 -80.0467 191° South 188 216 1,900 -900 Descending Miami Center
10:42PM 26.0739 -80.0903 263° West 139 160 1,000 -840 Descending Miami Center
10:43PM 26.0750 -80.1297 272° West 126 145 300 -720 Descending Miami Center
10:45PM 26.0667 -80.1500 180° South  Level FlightAware Approximate
10:52PM 26.0726 -80.1527 180° South  Level Estimated